createdAt,value
2023-02-11T00:00:59.256Z,5.94
2023-02-11T00:03:26.284Z,5.94
2023-02-11T00:06:05.343Z,5.95
2023-02-11T00:08:31.962Z,5.95
2023-02-11T00:10:58.992Z,5.94
2023-02-11T00:13:25.908Z,5.94
2023-02-11T00:15:52.885Z,5.94
2023-02-11T00:18:19.483Z,5.91
2023-02-11T00:20:46.443Z,5.91
2023-02-11T00:23:13.394Z,5.91
2023-02-11T00:25:42.265Z,5.90
2023-02-11T00:28:09.881Z,5.91
2023-02-11T00:30:36.798Z,5.91
2023-02-11T00:33:03.932Z,5.91
2023-02-11T00:35:32.300Z,5.90
2023-02-11T00:38:00.328Z,5.85
2023-02-11T00:40:27.300Z,5.87
2023-02-11T00:42:53.804Z,5.88
2023-02-11T00:45:21.217Z,5.87
2023-02-11T00:47:48.167Z,5.88
2023-02-11T00:50:14.998Z,5.86
2023-02-11T00:52:41.622Z,5.83
2023-02-11T00:55:09.032Z,5.89
2023-02-11T00:57:35.753Z,5.88
2023-02-11T01:00:02.968Z,5.87
2023-02-11T01:02:29.565Z,5.86
2023-02-11T01:04:56.179Z,5.87
2023-02-11T01:07:23.358Z,5.86
2023-02-11T01:09:49.895Z,5.87
2023-02-11T01:12:16.501Z,5.86
2023-02-11T01:14:43.786Z,5.87
2023-02-11T01:17:11.290Z,5.84
2023-02-11T01:19:38.213Z,5.82
2023-02-11T01:22:06.586Z,5.88
2023-02-11T01:24:33.322Z,5.86
2023-02-11T01:26:59.903Z,5.84
2023-02-11T01:29:26.418Z,5.87
2023-02-11T01:31:54.501Z,5.88
2023-02-11T01:34:21.073Z,5.87
2023-02-11T01:36:47.682Z,5.87
2023-02-11T01:39:14.251Z,5.86
2023-02-11T01:41:40.774Z,5.84
2023-02-11T01:44:42.735Z,5.90
2023-02-11T01:47:09.559Z,5.85
2023-02-11T01:49:43.742Z,5.81
2023-02-11T01:52:18.999Z,5.86
2023-02-11T01:55:19.370Z,5.86
2023-02-11T01:57:51.950Z,5.85
2023-02-11T02:00:30.017Z,5.83
2023-02-11T02:03:20.118Z,5.85
2023-02-11T02:05:53.876Z,5.81
2023-02-11T02:08:42.276Z,5.79
2023-02-11T02:11:09.184Z,5.76
2023-02-11T02:13:37.527Z,5.78
2023-02-11T02:16:09.657Z,5.78
2023-02-11T02:18:55.200Z,5.78
2023-02-11T02:21:49.718Z,5.78
2023-02-11T02:24:56.502Z,5.78
2023-02-11T02:27:30.667Z,5.76
2023-02-11T02:30:16.380Z,5.76
2023-02-11T02:33:21.670Z,5.76
2023-02-11T02:36:18.150Z,5.78
2023-02-11T02:38:57.443Z,5.76
2023-02-11T02:41:28.475Z,5.74
2023-02-11T02:43:55.463Z,5.72
2023-02-11T02:46:25.022Z,5.74
2023-02-11T02:48:53.128Z,5.70
2023-02-11T02:51:55.115Z,5.73
2023-02-11T02:54:50.996Z,5.74
2023-02-11T02:57:47.118Z,5.71
2023-02-11T03:00:25.776Z,5.72
2023-02-11T03:03:19.818Z,5.69
2023-02-11T03:05:49.716Z,5.69
2023-02-11T03:08:24.312Z,5.69
2023-02-11T03:10:53.611Z,5.68
2023-02-11T03:13:33.745Z,5.68
2023-02-11T03:16:08.249Z,5.67
2023-02-11T03:18:39.639Z,5.66
2023-02-11T03:21:09.719Z,5.61
2023-02-11T03:23:49.859Z,5.60
2023-02-11T03:26:16.289Z,5.64
2023-02-11T03:28:54.909Z,5.63
2023-02-11T03:31:58.877Z,5.64
2023-02-11T03:34:33.375Z,5.61
2023-02-11T03:37:15.016Z,5.62
2023-02-11T03:39:47.562Z,5.62
2023-02-11T03:42:16.269Z,5.59
2023-02-11T03:44:52.551Z,5.60
2023-02-11T03:47:23.596Z,5.60
2023-02-11T03:49:53.332Z,5.59
2023-02-11T03:52:23.203Z,5.58
2023-02-11T03:54:55.326Z,5.58
2023-02-11T03:57:21.913Z,5.60
2023-02-11T03:59:54.380Z,5.57
2023-02-11T04:02:25.213Z,5.55
2023-02-11T04:04:51.820Z,5.58
2023-02-11T04:07:18.446Z,5.56
2023-02-11T04:09:44.992Z,5.55
2023-02-11T04:12:11.832Z,5.55
2023-02-11T04:14:38.707Z,5.55
2023-02-11T04:17:05.540Z,5.55
2023-02-11T04:19:32.329Z,5.56
2023-02-11T04:21:58.923Z,5.55
2023-02-11T04:24:25.508Z,5.56
2023-02-11T04:26:52.651Z,5.53
2023-02-11T04:29:19.552Z,5.55
2023-02-11T04:31:46.286Z,5.50
2023-02-11T04:34:12.826Z,5.53
2023-02-11T04:36:39.431Z,5.53
2023-02-11T04:39:06.494Z,5.53
2023-02-11T04:41:33.311Z,5.54
2023-02-11T04:43:59.835Z,5.54
2023-02-11T04:46:26.473Z,5.53
2023-02-11T04:48:53.225Z,5.51
2023-02-11T04:51:19.780Z,5.54
2023-02-11T04:53:46.321Z,5.56
2023-02-11T04:56:12.848Z,5.54
2023-02-11T04:58:39.518Z,5.56
2023-02-11T05:01:11.383Z,5.56
2023-02-11T05:03:38.117Z,5.65
2023-02-11T05:06:05.688Z,5.61
2023-02-11T05:08:32.283Z,5.59
2023-02-11T05:10:59.523Z,5.60
2023-02-11T05:13:26.084Z,5.60
2023-02-11T05:15:53.123Z,5.59
2023-02-11T05:18:19.821Z,5.60
2023-02-11T05:20:46.324Z,5.60
2023-02-11T05:23:12.877Z,5.61
2023-02-11T05:25:39.370Z,5.57
2023-02-11T05:28:06.681Z,5.57
2023-02-11T05:30:33.309Z,5.59
2023-02-11T05:32:59.856Z,5.58
2023-02-11T05:35:26.404Z,5.59
2023-02-11T05:37:53.044Z,5.61
2023-02-11T05:40:19.650Z,5.56
2023-02-11T05:42:46.188Z,5.52
2023-02-11T05:45:12.752Z,5.56
2023-02-11T05:47:39.309Z,5.54
2023-02-11T05:50:06.173Z,5.54
2023-02-11T05:52:32.919Z,5.55
2023-02-11T05:54:59.588Z,5.54
2023-02-11T05:57:26.078Z,5.54
2023-02-11T05:59:52.626Z,5.54
2023-02-11T06:02:19.149Z,5.52
2023-02-11T06:04:45.635Z,5.53
2023-02-11T06:07:12.268Z,5.54
2023-02-11T06:09:38.928Z,5.54
2023-02-11T06:12:05.690Z,5.55
2023-02-11T06:14:34.182Z,5.54
2023-02-11T06:17:01.358Z,5.55
2023-02-11T06:19:27.955Z,5.53
2023-02-11T06:21:56.174Z,5.60
2023-02-11T06:24:47.798Z,5.61
2023-02-11T06:27:09.484Z,5.65
2023-02-11T06:29:37.187Z,5.64
2023-02-11T06:32:04.353Z,5.63
2023-02-11T06:34:31.009Z,5.66
2023-02-11T06:36:57.544Z,5.66
2023-02-11T06:39:24.075Z,5.68
2023-02-11T06:41:50.576Z,5.66
2023-02-11T06:44:17.154Z,5.67
2023-02-11T06:46:43.749Z,5.69
2023-02-11T06:49:10.455Z,5.70
2023-02-11T06:51:37.053Z,5.67
2023-02-11T06:54:05.561Z,5.71
2023-02-11T06:56:32.755Z,5.71
2023-02-11T06:58:59.443Z,5.73
2023-02-11T07:01:27.595Z,5.74
2023-02-11T07:03:54.683Z,5.71
2023-02-11T07:06:24.799Z,5.73
2023-02-11T07:08:51.418Z,5.74
2023-02-11T07:11:20.573Z,5.76
2023-02-11T07:13:47.609Z,5.76
2023-02-11T07:16:16.047Z,5.76
2023-02-11T07:18:43.032Z,5.78
2023-02-11T07:21:12.257Z,5.75
2023-02-11T07:23:40.759Z,5.79
2023-02-11T07:26:09.852Z,5.81
2023-02-11T07:28:40.012Z,5.82
2023-02-11T07:31:10.893Z,5.83
2023-02-11T07:33:37.843Z,5.83
2023-02-11T07:36:06.085Z,5.84
2023-02-11T07:38:34.305Z,5.86
2023-02-11T07:41:02.177Z,5.83
2023-02-11T07:43:28.842Z,5.84
2023-02-11T07:45:55.377Z,5.88
2023-02-11T07:48:21.858Z,5.87
2023-02-11T07:50:48.381Z,5.87
2023-02-11T07:53:14.918Z,5.87
2023-02-11T07:55:43.151Z,5.89
2023-02-11T07:58:09.722Z,5.91
2023-02-11T08:00:36.375Z,5.93
2023-02-11T08:03:03.678Z,5.91
2023-02-11T08:05:30.494Z,5.91
2023-02-11T08:07:56.996Z,5.89
2023-02-11T08:10:23.464Z,5.93
2023-02-11T08:12:50.011Z,5.95
2023-02-11T08:15:16.575Z,5.93
2023-02-11T08:17:43.145Z,5.95
2023-02-11T08:20:10.158Z,5.97
2023-02-11T08:22:36.788Z,5.97
2023-02-11T08:25:03.394Z,5.97
2023-02-11T08:27:29.994Z,5.97
2023-02-11T08:29:56.608Z,6.00
2023-02-11T08:32:25.428Z,6.02
2023-02-11T08:34:52.882Z,6.01
2023-02-11T08:37:19.977Z,6.03
2023-02-11T08:39:47.292Z,6.03
2023-02-11T08:42:15.542Z,6.07
2023-02-11T08:44:43.181Z,6.06
2023-02-11T08:47:09.848Z,6.06
2023-02-11T08:49:36.529Z,6.08
2023-02-11T08:52:04.189Z,6.09
2023-02-11T08:54:31.395Z,6.12
2023-02-11T08:56:58.114Z,6.09
2023-02-11T08:59:24.628Z,6.14
2023-02-11T09:01:51.386Z,6.14
2023-02-11T09:04:17.984Z,6.16
2023-02-11T09:06:44.618Z,6.13
2023-02-11T09:09:13.514Z,6.17
2023-02-11T09:11:41.388Z,6.20
2023-02-11T09:14:08.532Z,6.22
2023-02-11T09:16:36.532Z,6.25
2023-02-11T09:19:04.883Z,6.30
2023-02-11T09:21:31.783Z,6.29
2023-02-11T09:23:58.351Z,6.31
2023-02-11T09:26:30.900Z,6.35
2023-02-11T09:28:58.251Z,6.36
2023-02-11T09:31:26.839Z,6.35
2023-02-11T09:33:56.875Z,6.34
2023-02-11T09:36:26.709Z,6.35
2023-02-11T09:38:53.552Z,6.37
2023-02-11T09:41:22.932Z,6.43
2023-02-11T09:43:56.203Z,6.44
2023-02-11T09:46:24.770Z,6.48
2023-02-11T09:48:54.509Z,6.47
2023-02-11T09:51:41.191Z,6.51
2023-02-11T09:54:18.296Z,6.54
2023-02-11T09:56:44.821Z,6.54
2023-02-11T09:59:16.484Z,6.49
2023-02-11T10:02:14.262Z,6.57
2023-02-11T10:05:19.539Z,6.56
2023-02-11T10:08:16.842Z,6.58
2023-02-11T10:10:58.741Z,6.58
2023-02-11T10:13:33.286Z,6.56
2023-02-11T10:16:11.713Z,6.56
2023-02-11T10:19:19.204Z,6.62
2023-02-11T10:21:51.538Z,6.64
2023-02-11T10:24:19.008Z,6.61
2023-02-11T10:26:46.330Z,6.69
2023-02-11T10:29:38.552Z,6.70
2023-02-11T10:32:10.600Z,6.75
2023-02-11T10:34:41.688Z,6.72
2023-02-11T10:37:12.935Z,6.75
2023-02-11T10:39:41.142Z,6.75
2023-02-11T10:42:12.139Z,6.75
2023-02-11T10:45:00.802Z,6.74
2023-02-11T10:47:36.691Z,6.77
2023-02-11T10:50:33.402Z,6.81
2023-02-11T10:53:21.068Z,6.79
2023-02-11T10:55:53.727Z,6.82
2023-02-11T10:58:26.592Z,6.83
2023-02-11T11:00:55.373Z,6.86
2023-02-11T11:03:25.332Z,6.90
2023-02-11T11:06:00.808Z,6.92
2023-02-11T11:08:51.148Z,6.93
2023-02-11T11:11:20.618Z,6.94
2023-02-11T11:13:52.846Z,6.99
2023-02-11T11:16:26.403Z,7.02
2023-02-11T11:19:15.386Z,7.05
2023-02-11T11:21:47.548Z,6.99
2023-02-11T11:24:27.826Z,7.06
2023-02-11T11:26:59.468Z,7.06
2023-02-11T11:29:35.767Z,7.09
2023-02-11T11:32:07.117Z,7.10
2023-02-11T11:34:40.532Z,7.05
2023-02-11T11:37:13.551Z,7.08
2023-02-11T11:39:40.639Z,7.10
2023-02-11T11:42:28.358Z,7.19
2023-02-11T11:45:04.560Z,7.24
2023-02-11T11:47:44.960Z,7.25
2023-02-11T11:50:27.056Z,7.26
2023-02-11T11:53:13.822Z,7.31
2023-02-11T11:56:14.184Z,7.28
2023-02-11T11:58:41.154Z,7.26
2023-02-11T12:01:24.975Z,7.24
2023-02-11T12:04:09.425Z,7.27
2023-02-11T12:07:06.993Z,7.31
2023-02-11T12:10:04.494Z,7.32
2023-02-11T12:12:46.959Z,7.32
2023-02-11T12:15:31.880Z,7.37
2023-02-11T12:18:19.986Z,7.41
2023-02-11T12:21:10.790Z,7.48
2023-02-11T12:23:50.249Z,7.53
2023-02-11T12:26:20.675Z,7.49
2023-02-11T12:29:13.389Z,7.52
2023-02-11T12:32:15.577Z,7.57
2023-02-11T12:34:52.559Z,7.59
2023-02-11T12:37:45.703Z,7.64
2023-02-11T12:40:46.789Z,7.62
2023-02-11T12:43:25.094Z,7.81
2023-02-11T12:46:07.200Z,7.79
2023-02-11T12:49:11.995Z,7.83
2023-02-11T12:51:41.358Z,7.81
2023-02-11T12:54:49.802Z,7.88
2023-02-11T12:57:26.202Z,7.98
2023-02-11T13:00:14.877Z,8.05
2023-02-11T13:02:49.295Z,8.00
2023-02-11T13:05:27.072Z,7.96
2023-02-11T13:07:59.212Z,8.01
2023-02-11T13:10:41.535Z,8.01
2023-02-11T13:13:20.984Z,8.04
2023-02-11T13:15:51.997Z,8.03
2023-02-11T13:19:00.271Z,8.04
2023-02-11T13:21:34.830Z,8.04
2023-02-11T13:24:08.000Z,8.03
2023-02-11T13:27:11.544Z,8.05
2023-02-11T13:30:21.363Z,8.07
2023-02-11T13:32:53.882Z,8.09
2023-02-11T13:35:33.877Z,8.09
2023-02-11T13:38:03.120Z,8.11
2023-02-11T13:40:34.202Z,8.11
2023-02-11T13:43:03.365Z,8.12
2023-02-11T13:45:47.567Z,8.19
2023-02-11T13:48:27.466Z,8.15
2023-02-11T13:50:58.205Z,8.22
2023-02-11T13:53:25.889Z,8.21
2023-02-11T13:56:07.653Z,8.26
2023-02-11T13:58:39.753Z,8.27
2023-02-11T14:01:07.789Z,8.32
2023-02-11T14:04:09.386Z,8.32
2023-02-11T14:06:54.299Z,8.33
2023-02-11T14:09:20.790Z,8.37
2023-02-11T14:12:09.186Z,8.37
2023-02-11T14:15:10.715Z,8.43
2023-02-11T14:17:37.312Z,8.37
2023-02-11T14:20:24.643Z,8.38
2023-02-11T14:22:53.429Z,8.45
2023-02-11T14:25:25.625Z,8.45
2023-02-11T14:28:34.834Z,8.49
2023-02-11T14:31:12.952Z,8.47
2023-02-11T14:33:52.331Z,8.50
2023-02-11T14:36:46.158Z,8.51
2023-02-11T14:39:24.187Z,8.41
2023-02-11T14:41:51.144Z,8.50
2023-02-11T14:44:23.224Z,8.49
2023-02-11T14:46:53.306Z,8.46
2023-02-11T14:49:33.467Z,8.46
2023-02-11T14:52:13.706Z,8.51
2023-02-11T14:54:43.161Z,8.55
2023-02-11T14:57:17.360Z,8.53
2023-02-11T15:00:02.308Z,8.53
2023-02-11T15:02:34.900Z,8.55
2023-02-11T15:05:23.700Z,8.57
2023-02-11T15:07:56.957Z,8.53
2023-02-11T15:10:37.357Z,8.56
2023-02-11T15:13:05.391Z,8.50
2023-02-11T15:15:33.130Z,8.55
2023-02-11T15:18:02.822Z,8.58
2023-02-11T15:20:32.367Z,8.53
2023-02-11T15:23:05.898Z,8.51
2023-02-11T15:25:34.265Z,8.53
2023-02-11T15:28:01.075Z,8.49
2023-02-11T15:30:34.144Z,8.47
2023-02-11T15:33:03.569Z,8.46
2023-02-11T15:35:34.919Z,8.48
2023-02-11T15:38:01.488Z,8.50
2023-02-11T15:40:32.398Z,8.48
2023-02-11T15:43:02.857Z,8.48
2023-02-11T15:45:42.037Z,8.48
2023-02-11T15:48:21.316Z,8.50
2023-02-11T15:50:58.687Z,8.51
2023-02-11T15:53:43.272Z,8.47
2023-02-11T15:56:43.001Z,8.44
2023-02-11T15:59:17.280Z,8.44
2023-02-11T16:01:45.520Z,8.39
2023-02-11T16:04:25.198Z,8.40
2023-02-11T16:06:53.221Z,8.43
2023-02-11T16:09:19.739Z,8.43
2023-02-11T16:11:46.235Z,8.41
2023-02-11T16:14:39.316Z,8.43
2023-02-11T16:17:25.749Z,8.37
2023-02-11T16:19:53.554Z,8.36
2023-02-11T16:22:26.251Z,8.37
2023-02-11T16:24:55.152Z,8.34
2023-02-11T16:27:33.961Z,8.38
2023-02-11T16:30:00.539Z,8.38
2023-02-11T16:32:29.077Z,8.36
2023-02-11T16:34:58.350Z,8.38
2023-02-11T16:37:25.573Z,8.35
2023-02-11T16:39:56.663Z,8.28
2023-02-11T16:42:23.435Z,8.30
2023-02-11T16:44:50.034Z,8.34
2023-02-11T16:47:25.784Z,8.31
2023-02-11T16:49:52.709Z,8.30
2023-02-11T16:52:21.716Z,8.29
2023-02-11T16:54:48.465Z,8.29
2023-02-11T16:57:18.442Z,8.23
2023-02-11T16:59:45.941Z,8.26
2023-02-11T17:02:29.279Z,8.30
2023-02-11T17:04:58.684Z,8.26
2023-02-11T17:07:25.458Z,8.28
2023-02-11T17:09:52.169Z,8.26
2023-02-11T17:12:19.357Z,8.25
2023-02-11T17:14:45.847Z,8.25
2023-02-11T17:17:13.362Z,8.27
2023-02-11T17:19:40.017Z,8.26
2023-02-11T17:22:06.788Z,8.21
2023-02-11T17:24:33.327Z,8.22
2023-02-11T17:26:59.940Z,8.21
2023-02-11T17:29:27.069Z,8.21
2023-02-11T17:31:53.723Z,8.18
2023-02-11T17:34:21.613Z,8.20
2023-02-11T17:36:48.460Z,8.22
2023-02-11T17:39:15.223Z,8.19
2023-02-11T17:41:41.993Z,8.17
2023-02-11T17:44:10.413Z,8.19
2023-02-11T17:46:36.935Z,8.17
2023-02-11T17:49:04.310Z,8.19
2023-02-11T17:51:34.836Z,8.17
2023-02-11T17:54:04.759Z,8.18
2023-02-11T17:56:36.263Z,8.15
2023-02-11T17:59:04.173Z,8.15
2023-02-11T18:01:32.241Z,8.15
2023-02-11T18:03:59.053Z,8.12
2023-02-11T18:06:26.700Z,8.10
2023-02-11T18:08:56.829Z,8.14
2023-02-11T18:11:25.145Z,8.08
2023-02-11T18:13:54.432Z,8.13
2023-02-11T18:16:22.182Z,8.14
2023-02-11T18:18:49.742Z,8.13
2023-02-11T18:21:19.234Z,8.10
2023-02-11T18:23:46.357Z,8.09
2023-02-11T18:26:14.967Z,8.11
2023-02-11T18:28:45.311Z,8.09
2023-02-11T18:31:13.727Z,8.10
2023-02-11T18:33:41.094Z,8.07
2023-02-11T18:36:10.612Z,8.04
2023-02-11T18:38:37.592Z,8.08
2023-02-11T18:41:04.730Z,8.07
2023-02-11T18:43:34.439Z,8.07
2023-02-11T18:46:03.130Z,8.06
2023-02-11T18:48:29.754Z,8.03
2023-02-11T18:50:56.482Z,8.05
2023-02-11T18:53:24.694Z,8.03
2023-02-11T18:55:52.715Z,8.03
2023-02-11T18:58:21.127Z,8.02
2023-02-11T19:00:48.549Z,7.98
2023-02-11T19:03:15.365Z,8.01
2023-02-11T19:05:42.671Z,8.01
2023-02-11T19:08:09.512Z,7.97
2023-02-11T19:10:39.981Z,8.00
2023-02-11T19:13:06.512Z,7.94
2023-02-11T19:15:33.074Z,7.98
2023-02-11T19:17:59.598Z,7.98
2023-02-11T19:20:26.095Z,7.98
2023-02-11T19:22:52.639Z,7.95
2023-02-11T19:25:19.343Z,7.96
2023-02-11T19:27:45.924Z,7.96
2023-02-11T19:30:12.687Z,7.92
2023-02-11T19:32:39.244Z,7.93
2023-02-11T19:35:06.345Z,7.94
2023-02-11T19:37:32.865Z,7.92
2023-02-11T19:39:59.425Z,7.91
2023-02-11T19:42:27.661Z,7.89
2023-02-11T19:44:54.321Z,7.89
2023-02-11T19:47:27.459Z,7.90
2023-02-11T19:49:54.378Z,7.84
2023-02-11T19:52:20.962Z,7.90
2023-02-11T19:54:47.484Z,7.89
2023-02-11T19:57:14.067Z,7.89
2023-02-11T19:59:40.558Z,7.90
2023-02-11T20:02:07.446Z,7.90
2023-02-11T20:04:34.024Z,7.88
2023-02-11T20:07:00.596Z,7.89
2023-02-11T20:09:28.985Z,7.89
2023-02-11T20:11:55.532Z,7.85
2023-02-11T20:14:22.185Z,7.89
2023-02-11T20:16:50.107Z,7.88
2023-02-11T20:19:19.252Z,7.87
2023-02-11T20:21:48.430Z,7.86
2023-02-11T20:24:17.321Z,7.86
2023-02-11T20:26:45.164Z,7.86
2023-02-11T20:29:12.386Z,7.86
2023-02-11T20:31:39.064Z,7.87
2023-02-11T20:34:05.773Z,7.86
2023-02-11T20:36:35.586Z,7.82
2023-02-11T20:39:04.832Z,7.86
2023-02-11T20:41:36.425Z,7.85
2023-02-11T20:44:06.290Z,7.85
2023-02-11T20:46:34.376Z,7.85
2023-02-11T20:49:01.694Z,7.83
2023-02-11T20:51:31.481Z,7.82
2023-02-11T20:53:58.435Z,7.84
2023-02-11T20:56:30.592Z,7.85
2023-02-11T20:58:58.613Z,7.84
2023-02-11T21:01:31.403Z,7.83
2023-02-11T21:04:03.587Z,7.80
2023-02-11T21:06:35.835Z,7.82
2023-02-11T21:09:04.341Z,7.79
2023-02-11T21:11:31.354Z,7.80
2023-02-11T21:13:58.341Z,7.79
2023-02-11T21:16:24.997Z,7.75
2023-02-11T21:18:52.208Z,7.75
2023-02-11T21:21:19.543Z,7.77
2023-02-11T21:23:46.268Z,7.78
2023-02-11T21:26:14.083Z,7.77
2023-02-11T21:28:41.433Z,7.76
2023-02-11T21:31:08.404Z,7.76
2023-02-11T21:33:35.165Z,7.68
2023-02-11T21:36:04.633Z,7.74
2023-02-11T21:38:31.360Z,7.74
2023-02-11T21:41:03.963Z,7.74
2023-02-11T21:43:30.554Z,7.71
2023-02-11T21:45:57.392Z,7.73
2023-02-11T21:48:25.631Z,7.73
2023-02-11T21:50:53.293Z,7.72
2023-02-11T21:53:19.842Z,7.73
2023-02-11T21:55:46.432Z,7.72
2023-02-11T21:58:13.080Z,7.68
2023-02-11T22:00:39.661Z,7.70
2023-02-11T22:03:06.373Z,7.70
2023-02-11T22:05:32.951Z,7.68
2023-02-11T22:07:59.522Z,7.63
2023-02-11T22:10:26.155Z,7.64
2023-02-11T22:12:52.748Z,7.62
2023-02-11T22:15:19.692Z,7.61
2023-02-11T22:17:46.277Z,7.62
2023-02-11T22:20:12.881Z,7.61
2023-02-11T22:22:39.431Z,7.62
2023-02-11T22:25:06.367Z,7.55
2023-02-11T22:27:33.052Z,7.58
2023-02-11T22:29:59.601Z,7.55
2023-02-11T22:32:26.286Z,7.59
2023-02-11T22:34:53.509Z,7.59
2023-02-11T22:37:20.442Z,7.62
2023-02-11T22:39:47.024Z,7.58
2023-02-11T22:42:13.579Z,7.56
2023-02-11T22:44:40.142Z,7.57
2023-02-11T22:47:06.775Z,7.57
2023-02-11T22:49:33.647Z,7.54
2023-02-11T22:52:00.375Z,7.53
2023-02-11T22:54:27.168Z,7.51
2023-02-11T22:56:53.674Z,7.51
2023-02-11T22:59:21.681Z,7.51
2023-02-11T23:01:48.391Z,7.49
2023-02-11T23:04:16.894Z,7.51
2023-02-11T23:06:43.484Z,7.51
2023-02-11T23:09:12.340Z,7.52
2023-02-11T23:11:39.640Z,7.50
2023-02-11T23:14:08.533Z,7.50
2023-02-11T23:16:35.328Z,7.50
2023-02-11T23:19:06.216Z,7.49
2023-02-11T23:21:35.290Z,7.50
2023-02-11T23:24:22.052Z,7.53
2023-02-11T23:26:48.654Z,7.49
2023-02-11T23:29:15.291Z,7.46
2023-02-11T23:31:45.871Z,7.47
2023-02-11T23:34:17.103Z,7.47
2023-02-11T23:36:44.380Z,7.45
2023-02-11T23:39:15.235Z,7.43
2023-02-11T23:41:41.770Z,7.44
2023-02-11T23:44:09.878Z,7.42
2023-02-11T23:46:36.537Z,7.44
2023-02-11T23:49:03.520Z,7.42
2023-02-11T23:51:30.322Z,7.44
2023-02-11T23:53:56.860Z,7.44
2023-02-11T23:56:26.522Z,7.45
2023-02-11T23:58:55.546Z,7.45
